createdAt,value
2022-12-04T00:02:20.309Z,-1.30
2022-12-04T00:05:09.921Z,-1.30
2022-12-04T00:07:57.064Z,-1.30
2022-12-04T00:10:45.780Z,-1.20
2022-12-04T00:13:33.724Z,-1.30
2022-12-04T00:16:23.383Z,-1.40
2022-12-04T00:19:10.725Z,-1.30
2022-12-04T00:21:58.083Z,-1.40
2022-12-04T00:24:45.351Z,-1.40
2022-12-04T00:27:33.948Z,-1.40
2022-12-04T00:30:20.740Z,-1.40
2022-12-04T00:33:07.498Z,-1.40
2022-12-04T00:35:59.552Z,-1.30
2022-12-04T00:38:47.286Z,-1.30
2022-12-04T00:41:35.135Z,-1.30
2022-12-04T00:44:23.619Z,-1.20
2022-12-04T00:47:10.615Z,-1.10
2022-12-04T00:49:58.097Z,-1.20
2022-12-04T00:52:45.285Z,-1.30
2022-12-04T00:55:32.828Z,-1.20
2022-12-04T00:58:20.398Z,-1.10
2022-12-04T01:01:11.322Z,-1.10
2022-12-04T01:03:58.621Z,-1.20
2022-12-04T01:06:45.486Z,-1.30
2022-12-04T01:09:33.110Z,-1.30
2022-12-04T01:12:21.111Z,-1.30
2022-12-04T01:15:09.380Z,-1.30
2022-12-04T01:17:57.809Z,-1.40
2022-12-04T01:20:48.850Z,-1.40
2022-12-04T01:23:36.038Z,-1.40
2022-12-04T01:26:23.251Z,-1.40
2022-12-04T01:29:10.186Z,-1.40
2022-12-04T01:31:57.261Z,-1.30
2022-12-04T01:34:46.153Z,-1.40
2022-12-04T01:37:33.914Z,-1.50
2022-12-04T01:40:20.970Z,-1.50
2022-12-04T01:43:13.619Z,-1.50
2022-12-04T01:46:02.218Z,-1.50
2022-12-04T01:48:54.345Z,-1.50
2022-12-04T01:51:45.703Z,-1.50
2022-12-04T01:54:37.159Z,-1.50
2022-12-04T01:57:26.242Z,-1.50
2022-12-04T02:00:16.452Z,-1.50
2022-12-04T02:03:03.239Z,-1.50
2022-12-04T02:05:50.489Z,-1.50
2022-12-04T02:08:39.857Z,-1.50
2022-12-04T02:11:38.003Z,-1.50
2022-12-04T02:14:35.194Z,-1.40
2022-12-04T02:17:29.212Z,-1.40
2022-12-04T02:20:24.543Z,-1.40
2022-12-04T02:23:38.418Z,-1.40
2022-12-04T02:26:40.127Z,-1.40
2022-12-04T02:29:35.830Z,-1.40
2022-12-04T02:32:25.660Z,-1.40
2022-12-04T02:35:17.115Z,-1.40
2022-12-04T02:38:11.711Z,-1.40
2022-12-04T02:41:03.565Z,-1.40
2022-12-04T02:43:53.300Z,-1.40
2022-12-04T02:46:44.950Z,-1.40
2022-12-04T02:49:36.462Z,-1.30
2022-12-04T02:52:30.117Z,-1.30
2022-12-04T02:55:22.948Z,-1.20
2022-12-04T02:58:14.699Z,-1.10
2022-12-04T03:01:18.257Z,-1.00
2022-12-04T03:04:13.429Z,-1.00
2022-12-04T03:07:07.330Z,-1.10
2022-12-04T03:09:58.932Z,-1.00
2022-12-04T03:12:50.079Z,-1.00
2022-12-04T03:15:42.482Z,-1.00
2022-12-04T03:18:33.293Z,-1.10
2022-12-04T03:21:25.594Z,-1.20
2022-12-04T03:24:18.742Z,-1.30
2022-12-04T03:27:11.040Z,-1.20
2022-12-04T03:30:04.007Z,-1.20
2022-12-04T03:32:54.794Z,-1.20
2022-12-04T03:35:47.371Z,-1.20
2022-12-04T03:38:42.778Z,-1.10
2022-12-04T03:41:39.448Z,-1.10
2022-12-04T03:44:34.083Z,-1.20
2022-12-04T03:47:26.973Z,-1.20
2022-12-04T03:50:19.706Z,-1.20
2022-12-04T03:53:13.967Z,-1.30
2022-12-04T03:56:08.275Z,-1.40
2022-12-04T03:58:59.921Z,-1.40
2022-12-04T04:01:49.865Z,-1.40
2022-12-04T04:04:38.666Z,-1.40
2022-12-04T04:07:35.058Z,-1.50
2022-12-04T04:10:27.909Z,-1.50
2022-12-04T04:13:37.971Z,-1.50
2022-12-04T04:16:46.842Z,-1.40
2022-12-04T04:19:55.407Z,-1.40
2022-12-04T04:22:59.933Z,-1.40
2022-12-04T04:25:48.551Z,-1.40
2022-12-04T04:28:38.510Z,-1.40
2022-12-04T04:31:30.333Z,-1.30
2022-12-04T04:34:25.625Z,-1.30
2022-12-04T04:37:18.820Z,-1.30
2022-12-04T04:40:15.260Z,-1.40
2022-12-04T04:43:09.364Z,-1.30
2022-12-04T04:46:04.650Z,-1.30
2022-12-04T04:48:55.644Z,-1.20
2022-12-04T04:51:43.705Z,-1.20
2022-12-04T04:54:32.289Z,-1.20
2022-12-04T04:57:28.532Z,-1.10
2022-12-04T05:00:20.469Z,-1.10
2022-12-04T05:03:09.044Z,-1.00
2022-12-04T05:05:56.470Z,-1.10
2022-12-04T05:08:44.353Z,-1.10
2022-12-04T05:11:31.957Z,-1.10
2022-12-04T05:14:19.267Z,-1.00
2022-12-04T05:17:12.329Z,-1.00
2022-12-04T05:20:01.403Z,-1.00
2022-12-04T05:22:48.529Z,-1.00
2022-12-04T05:25:35.848Z,-1.00
2022-12-04T05:28:22.958Z,-0.90
2022-12-04T05:31:10.496Z,-0.90
2022-12-04T05:33:58.164Z,-0.90
2022-12-04T05:36:46.588Z,-0.90
2022-12-04T05:39:33.938Z,-0.90
2022-12-04T05:42:21.185Z,-0.90
2022-12-04T05:45:08.958Z,-1.00
2022-12-04T05:47:56.161Z,-0.80
2022-12-04T05:50:43.100Z,-0.90
2022-12-04T05:53:31.510Z,-0.80
2022-12-04T05:56:18.363Z,-0.80
2022-12-04T05:59:05.429Z,-0.80
2022-12-04T06:01:52.437Z,-0.80
2022-12-04T06:04:39.639Z,-0.80
2022-12-04T06:07:28.626Z,-0.80
2022-12-04T06:10:17.205Z,-0.80
2022-12-04T06:13:04.410Z,-0.90
2022-12-04T06:15:51.633Z,-0.90
2022-12-04T06:18:38.785Z,-0.90
2022-12-04T06:21:28.158Z,-0.90
2022-12-04T06:24:17.659Z,-0.90
2022-12-04T06:30:13.776Z,-0.90
2022-12-04T06:33:00.484Z,-0.90
2022-12-04T06:35:47.744Z,-0.90
2022-12-04T06:38:35.505Z,-0.80
2022-12-04T06:41:23.412Z,-0.80
2022-12-04T06:44:12.126Z,-0.90
2022-12-04T06:47:00.949Z,-0.90
2022-12-04T06:49:51.238Z,-0.80
2022-12-04T06:52:38.436Z,-0.80
2022-12-04T06:55:25.570Z,-0.80
2022-12-04T06:58:12.688Z,-0.80
2022-12-04T07:01:08.364Z,-0.80
2022-12-04T07:03:56.984Z,-0.80
2022-12-04T07:06:44.043Z,-0.80
2022-12-04T07:09:31.250Z,-0.80
2022-12-04T07:12:18.494Z,-0.70
2022-12-04T07:15:06.153Z,-0.70
2022-12-04T07:17:54.750Z,-0.60
2022-12-04T07:20:42.096Z,-0.60
2022-12-04T07:23:29.143Z,-0.60
2022-12-04T07:26:18.799Z,-0.50
2022-12-04T07:29:06.025Z,-0.50
2022-12-04T07:31:53.456Z,-0.50
2022-12-04T07:34:42.009Z,-0.50
2022-12-04T07:37:31.044Z,-0.50
2022-12-04T07:40:18.283Z,-0.50
2022-12-04T07:43:05.701Z,-0.40
2022-12-04T07:45:53.536Z,-0.40
2022-12-04T07:48:41.174Z,-0.40
2022-12-04T07:51:31.086Z,-0.40
2022-12-04T07:54:18.188Z,-0.30
2022-12-04T07:57:05.595Z,-0.30
2022-12-04T07:59:52.704Z,-0.40
2022-12-04T08:02:42.571Z,-0.30
2022-12-04T08:05:30.660Z,-0.30
2022-12-04T08:08:19.628Z,-0.30
2022-12-04T08:11:08.232Z,-0.30
2022-12-04T08:13:55.972Z,-0.10
2022-12-04T08:16:48.234Z,-0.10
2022-12-04T08:19:38.256Z,0.00
2022-12-04T08:22:25.694Z,0.00
2022-12-04T08:25:14.183Z,0.00
2022-12-04T08:28:01.252Z,0.10
2022-12-04T08:30:48.522Z,0.10
2022-12-04T08:33:36.022Z,0.10
2022-12-04T08:36:23.671Z,0.20
2022-12-04T08:39:11.561Z,0.10
2022-12-04T08:41:59.974Z,0.10
2022-12-04T08:44:47.593Z,0.10
2022-12-04T08:47:34.891Z,0.20
2022-12-04T08:50:21.788Z,0.20
2022-12-04T08:53:09.011Z,0.20
2022-12-04T08:55:56.459Z,0.20
2022-12-04T08:58:44.780Z,0.30
2022-12-04T09:01:32.238Z,0.30
2022-12-04T09:04:19.808Z,0.30
2022-12-04T09:07:07.209Z,0.20
2022-12-04T09:09:54.589Z,0.40
2022-12-04T09:12:42.115Z,0.40
2022-12-04T09:15:31.064Z,0.50
2022-12-04T09:18:18.174Z,0.50
2022-12-04T09:21:09.320Z,0.60
2022-12-04T09:23:56.585Z,0.50
2022-12-04T09:26:44.022Z,0.60
2022-12-04T09:29:31.533Z,0.60
2022-12-04T09:32:19.736Z,0.60
2022-12-04T09:35:08.817Z,0.70
2022-12-04T09:37:55.646Z,0.80
2022-12-04T09:40:53.726Z,0.70
2022-12-04T09:43:47.554Z,0.60
2022-12-04T09:46:39.587Z,0.50
2022-12-04T09:49:32.296Z,0.60
2022-12-04T09:52:31.114Z,0.70
2022-12-04T09:55:23.765Z,0.80
2022-12-04T09:58:16.016Z,0.80
2022-12-04T10:01:06.117Z,0.80
2022-12-04T10:03:58.678Z,0.80
2022-12-04T10:06:56.113Z,0.80
2022-12-04T10:09:50.984Z,0.80
2022-12-04T10:12:48.649Z,0.60
2022-12-04T10:15:43.533Z,0.40
2022-12-04T10:18:43.044Z,0.60
2022-12-04T10:21:59.083Z,0.50
2022-12-04T10:24:50.930Z,0.60
2022-12-04T10:27:43.317Z,0.60
2022-12-04T10:30:33.169Z,0.80
2022-12-04T10:33:24.900Z,1.00
2022-12-04T10:36:15.276Z,1.00
2022-12-04T10:39:07.487Z,1.10
2022-12-04T10:42:00.881Z,1.10
2022-12-04T10:44:47.714Z,1.20
2022-12-04T10:47:35.296Z,1.10
2022-12-04T10:50:25.058Z,1.10
2022-12-04T10:53:14.259Z,0.90
2022-12-04T10:56:12.068Z,0.90
2022-12-04T10:59:02.287Z,1.00
2022-12-04T11:01:50.344Z,1.10
2022-12-04T11:04:37.553Z,1.10
2022-12-04T11:07:26.114Z,1.20
2022-12-04T11:10:23.520Z,1.30
2022-12-04T11:13:18.855Z,1.30
2022-12-04T11:16:06.809Z,1.30
2022-12-04T11:18:53.831Z,1.40
2022-12-04T11:21:40.630Z,1.30
2022-12-04T11:24:31.412Z,1.10
2022-12-04T11:27:22.586Z,1.30
2022-12-04T11:30:20.876Z,1.30
2022-12-04T11:33:18.831Z,1.50
2022-12-04T11:36:18.257Z,1.60
2022-12-04T11:39:08.126Z,1.60
2022-12-04T11:42:02.557Z,1.60
2022-12-04T11:44:55.041Z,1.60
2022-12-04T11:47:54.771Z,1.60
2022-12-04T11:51:03.869Z,1.50
2022-12-04T11:54:01.100Z,1.50
2022-12-04T11:56:51.715Z,1.60
2022-12-04T11:59:58.935Z,1.60
2022-12-04T12:03:04.432Z,1.60
2022-12-04T12:06:13.539Z,1.70
2022-12-04T12:09:19.404Z,1.80
2022-12-04T12:12:12.104Z,1.70
2022-12-04T12:15:09.532Z,1.70
2022-12-04T12:18:19.216Z,1.60
2022-12-04T12:21:13.953Z,1.60
2022-12-04T12:24:19.587Z,1.50
2022-12-04T12:27:23.123Z,1.30
2022-12-04T12:30:15.757Z,1.30
2022-12-04T12:33:15.387Z,1.30
2022-12-04T12:36:07.134Z,1.40
2022-12-04T12:38:58.902Z,1.40
2022-12-04T12:41:50.159Z,1.50
2022-12-04T12:44:47.746Z,1.50
2022-12-04T12:47:42.267Z,1.50
2022-12-04T12:50:43.190Z,1.40
2022-12-04T12:53:37.580Z,1.50
2022-12-04T12:56:32.973Z,1.60
2022-12-04T12:59:24.552Z,1.60
2022-12-04T13:02:21.667Z,1.50
2022-12-04T13:05:12.213Z,1.60
2022-12-04T13:08:12.002Z,1.60
2022-12-04T13:11:05.808Z,1.50
2022-12-04T13:13:55.720Z,1.50
2022-12-04T13:16:47.027Z,1.50
2022-12-04T13:19:41.703Z,1.60
2022-12-04T13:22:35.164Z,1.50
2022-12-04T13:25:44.080Z,1.50
2022-12-04T13:28:44.005Z,1.60
2022-12-04T13:31:39.537Z,1.60
2022-12-04T13:34:43.194Z,1.70
2022-12-04T13:37:49.723Z,1.80
2022-12-04T13:40:41.069Z,1.90
2022-12-04T13:43:36.384Z,2.00
2022-12-04T13:46:30.259Z,2.10
2022-12-04T13:49:27.087Z,2.10
2022-12-04T13:52:25.057Z,2.20
2022-12-04T13:55:26.397Z,2.20
2022-12-04T13:58:29.735Z,2.20
2022-12-04T14:01:26.342Z,2.10
2022-12-04T14:04:25.465Z,2.10
2022-12-04T14:07:26.751Z,2.20
2022-12-04T14:10:29.364Z,2.20
2022-12-04T14:13:24.252Z,2.20
2022-12-04T14:16:22.541Z,2.30
2022-12-04T14:19:10.165Z,2.30
2022-12-04T14:21:57.683Z,2.20
2022-12-04T14:24:45.123Z,2.00
2022-12-04T14:27:35.243Z,2.00
2022-12-04T14:30:24.821Z,2.20
2022-12-04T14:33:19.033Z,2.20
2022-12-04T14:36:09.959Z,2.20
2022-12-04T14:39:15.340Z,2.20
2022-12-04T14:42:15.012Z,2.20
2022-12-04T14:45:03.844Z,2.00
2022-12-04T14:48:05.423Z,2.10
2022-12-04T14:51:00.978Z,2.20
2022-12-04T14:53:51.414Z,2.10
2022-12-04T14:57:00.236Z,2.20
2022-12-04T14:59:50.457Z,2.20
2022-12-04T15:02:42.150Z,2.20
2022-12-04T15:05:33.162Z,2.30
2022-12-04T15:08:23.002Z,2.30
2022-12-04T15:11:36.636Z,2.30
2022-12-04T15:14:23.574Z,2.30
2022-12-04T15:17:12.026Z,2.20
2022-12-04T15:20:10.963Z,2.20
2022-12-04T15:22:58.999Z,2.10
2022-12-04T15:25:51.103Z,2.10
2022-12-04T15:28:44.161Z,2.10
2022-12-04T15:31:36.267Z,2.00
2022-12-04T15:34:27.803Z,1.80
2022-12-04T15:37:19.618Z,1.70
2022-12-04T15:40:08.271Z,1.60
2022-12-04T15:43:08.678Z,1.60
2022-12-04T15:45:55.723Z,1.60
2022-12-04T15:48:47.740Z,1.60
2022-12-04T15:51:34.963Z,1.60
2022-12-04T15:54:24.732Z,1.60
2022-12-04T15:57:27.964Z,1.70
2022-12-04T16:00:28.893Z,1.70
2022-12-04T16:03:26.714Z,1.70
2022-12-04T16:06:18.958Z,1.70
2022-12-04T16:09:23.103Z,1.70
2022-12-04T16:12:19.277Z,1.70
2022-12-04T16:15:07.409Z,1.70
2022-12-04T16:17:56.066Z,1.70
2022-12-04T16:20:43.523Z,1.70
2022-12-04T16:23:30.987Z,1.70
2022-12-04T16:26:20.316Z,1.80
2022-12-04T16:33:15.127Z,1.80
2022-12-04T16:36:02.893Z,1.80
2022-12-04T16:38:51.666Z,1.80
2022-12-04T16:41:38.893Z,1.80
2022-12-04T16:44:26.247Z,1.80
2022-12-04T16:47:14.888Z,1.80
2022-12-04T16:50:03.539Z,1.80
2022-12-04T16:52:50.620Z,1.80
2022-12-04T16:55:39.780Z,1.90
2022-12-04T16:58:26.808Z,1.80
2022-12-04T17:01:22.500Z,1.80
2022-12-04T17:04:10.539Z,1.70
2022-12-04T17:07:06.281Z,1.80
2022-12-04T17:09:53.359Z,1.70
2022-12-04T17:12:41.650Z,1.70
2022-12-04T17:15:41.834Z,1.60
2022-12-04T17:18:32.958Z,1.70
2022-12-04T17:21:20.245Z,1.70
2022-12-04T17:24:09.406Z,1.70
2022-12-04T17:26:56.662Z,1.60
2022-12-04T17:29:43.794Z,1.50
2022-12-04T17:32:32.496Z,1.40
2022-12-04T17:35:20.709Z,1.40
2022-12-04T17:38:07.530Z,1.30
2022-12-04T17:41:03.473Z,1.20
2022-12-04T17:43:53.255Z,1.10
2022-12-04T17:46:40.695Z,1.10
2022-12-04T17:49:27.706Z,1.10
2022-12-04T17:52:15.030Z,1.10
2022-12-04T17:55:01.926Z,1.10
2022-12-04T17:57:50.164Z,1.10
2022-12-04T18:00:37.909Z,1.20
2022-12-04T18:03:25.170Z,1.20
2022-12-04T18:06:13.923Z,1.30
2022-12-04T18:09:07.756Z,1.30
2022-12-04T18:11:56.299Z,1.40
2022-12-04T18:14:44.865Z,1.40
2022-12-04T18:17:33.105Z,1.50
2022-12-04T18:20:20.142Z,1.50
2022-12-04T18:23:07.207Z,1.60
2022-12-04T18:25:56.744Z,1.60
2022-12-04T18:28:44.917Z,1.60
2022-12-04T18:31:34.289Z,1.60
2022-12-04T18:34:22.388Z,1.50
2022-12-04T18:37:09.724Z,1.50
2022-12-04T18:39:58.278Z,1.50
2022-12-04T18:42:47.932Z,1.50
2022-12-04T18:45:35.146Z,1.60
2022-12-04T18:48:23.879Z,1.50
2022-12-04T18:51:21.100Z,1.50
2022-12-04T18:54:11.752Z,1.50
2022-12-04T18:56:59.001Z,1.50
2022-12-04T18:59:46.315Z,1.40
2022-12-04T19:02:33.722Z,1.50
2022-12-04T19:05:22.277Z,1.50
2022-12-04T19:08:09.425Z,1.50
2022-12-04T19:10:57.893Z,1.50
2022-12-04T19:13:45.647Z,1.60
2022-12-04T19:16:32.662Z,1.60
2022-12-04T19:19:20.230Z,1.60
2022-12-04T19:22:08.568Z,1.60
2022-12-04T19:24:55.664Z,1.60
2022-12-04T19:27:42.514Z,1.60
2022-12-04T19:30:29.591Z,1.60
2022-12-04T19:33:18.016Z,1.60
2022-12-04T19:36:06.949Z,1.40
2022-12-04T19:38:57.741Z,1.50
2022-12-04T19:41:47.339Z,1.50
2022-12-04T19:44:50.261Z,1.50
2022-12-04T19:47:37.889Z,1.50
2022-12-04T19:50:25.233Z,1.50
2022-12-04T19:53:12.320Z,1.50
2022-12-04T19:56:03.946Z,1.60
2022-12-04T19:58:51.654Z,1.60
2022-12-04T20:01:38.949Z,1.50
2022-12-04T20:04:25.968Z,1.50
2022-12-04T20:07:13.329Z,1.40
2022-12-04T20:10:01.039Z,1.40
2022-12-04T20:12:49.737Z,1.50
2022-12-04T20:15:37.201Z,1.50
2022-12-04T20:18:24.053Z,1.50
2022-12-04T20:21:12.660Z,1.40
2022-12-04T20:24:02.627Z,1.40
2022-12-04T20:26:49.626Z,1.30
2022-12-04T20:29:38.493Z,1.30
2022-12-04T20:32:25.505Z,1.40
2022-12-04T20:35:13.068Z,1.40
2022-12-04T20:38:00.205Z,1.50
2022-12-04T20:40:47.749Z,1.50
2022-12-04T20:43:35.326Z,1.50
2022-12-04T20:46:25.902Z,1.50
2022-12-04T20:49:22.563Z,1.40
2022-12-04T20:52:11.326Z,1.40
2022-12-04T20:55:00.102Z,1.40
2022-12-04T20:57:48.951Z,1.50
2022-12-04T21:00:36.153Z,1.50
2022-12-04T21:03:24.688Z,1.50
2022-12-04T21:06:15.118Z,1.50
2022-12-04T21:09:02.298Z,1.50
2022-12-04T21:11:50.802Z,1.50
2022-12-04T21:14:55.660Z,1.40
2022-12-04T21:17:43.140Z,1.40
2022-12-04T21:20:31.471Z,1.30
2022-12-04T21:23:18.588Z,1.40
2022-12-04T21:26:05.769Z,1.40
2022-12-04T21:28:53.003Z,1.40
2022-12-04T21:31:40.001Z,1.40
2022-12-04T21:34:27.333Z,1.50
2022-12-04T21:37:16.435Z,1.50
2022-12-04T21:40:03.944Z,1.50
2022-12-04T21:42:50.760Z,1.60
2022-12-04T21:45:38.894Z,1.60
2022-12-04T21:48:26.759Z,1.60
2022-12-04T21:51:33.000Z,1.60
2022-12-04T21:54:22.758Z,1.60
2022-12-04T21:57:09.740Z,1.50
2022-12-04T21:59:56.981Z,1.60
2022-12-04T22:02:44.165Z,1.60
2022-12-04T22:05:47.659Z,1.60
2022-12-04T22:08:36.833Z,1.50
2022-12-04T22:11:25.367Z,1.50
2022-12-04T22:14:13.421Z,1.50
2022-12-04T22:17:00.447Z,1.50
2022-12-04T22:19:48.750Z,1.30
2022-12-04T22:22:35.908Z,1.20
2022-12-04T22:25:23.330Z,1.30
2022-12-04T22:28:11.499Z,1.30
2022-12-04T22:31:04.178Z,1.30
2022-12-04T22:33:53.476Z,1.30
2022-12-04T22:36:40.888Z,1.30
2022-12-04T22:39:27.903Z,1.40
2022-12-04T22:42:15.276Z,1.40
2022-12-04T22:45:03.712Z,1.40
2022-12-04T22:47:50.837Z,1.40
2022-12-04T22:50:37.626Z,1.30
2022-12-04T22:53:24.514Z,1.30
2022-12-04T22:56:13.560Z,1.30
2022-12-04T22:59:01.353Z,1.40
2022-12-04T23:01:50.187Z,1.30
2022-12-04T23:04:37.371Z,1.30
2022-12-04T23:07:24.290Z,1.40
2022-12-04T23:10:11.303Z,1.40
2022-12-04T23:12:58.270Z,1.40
2022-12-04T23:15:45.367Z,1.40
2022-12-04T23:18:34.170Z,1.40
2022-12-04T23:21:23.803Z,1.40
2022-12-04T23:24:11.335Z,1.40
2022-12-04T23:26:58.359Z,1.40
2022-12-04T23:29:53.277Z,1.50
2022-12-04T23:32:40.938Z,1.40
2022-12-04T23:35:30.824Z,1.40
2022-12-04T23:38:17.393Z,1.40
2022-12-04T23:41:05.747Z,1.30
2022-12-04T23:43:54.108Z,1.30
2022-12-04T23:46:41.185Z,1.30
2022-12-04T23:49:28.267Z,1.20
2022-12-04T23:52:16.745Z,1.20
2022-12-04T23:55:04.113Z,1.20
2022-12-04T23:57:51.031Z,1.10
